createdAt,value
2019-04-26T00:01:11.642Z,26.00
2019-04-26T00:03:49.311Z,28.05
2019-04-26T00:06:19.592Z,26.20
2019-04-26T00:09:00.371Z,28.45
2019-04-26T00:11:36.328Z,26.35
2019-04-26T00:14:08.364Z,29.20
2019-04-26T00:16:58.419Z,28.20
2019-04-26T00:19:28.852Z,27.05
2019-04-26T00:21:59.269Z,30.55
2019-04-26T00:24:29.919Z,29.07
2019-04-26T00:26:59.996Z,28.83
2019-04-26T00:29:30.032Z,26.10
2019-04-26T00:32:00.232Z,29.67
2019-04-26T00:34:30.199Z,26.93
2019-04-26T00:37:00.284Z,33.98
2019-04-26T00:39:30.413Z,32.17
2019-04-26T00:42:00.433Z,28.20
2019-04-26T00:44:30.411Z,30.82
2019-04-26T00:47:02.910Z,30.20
2019-04-26T00:49:43.479Z,29.05
2019-04-26T00:52:06.338Z,28.05
2019-04-26T00:54:38.129Z,34.75
2019-04-26T00:57:08.427Z,32.42
2019-04-26T00:59:38.887Z,35.03
2019-04-26T01:02:20.575Z,33.33
2019-04-26T01:04:50.467Z,36.28
2019-04-26T01:07:21.168Z,33.45
2019-04-26T01:09:51.268Z,31.42
2019-04-26T01:12:21.925Z,30.12
2019-04-26T01:14:52.057Z,37.00
2019-04-26T01:17:22.410Z,32.83
2019-04-26T01:19:55.142Z,30.55
2019-04-26T01:22:28.159Z,31.65
2019-04-26T01:25:01.058Z,29.42
2019-04-26T01:27:32.216Z,28.90
2019-04-26T01:30:08.153Z,31.85
2019-04-26T01:32:41.003Z,35.52
2019-04-26T01:35:10.923Z,28.30
2019-04-26T01:37:45.051Z,30.27
2019-04-26T01:40:16.758Z,26.35
2019-04-26T01:43:02.590Z,39.98
2019-04-26T01:45:53.081Z,30.35
2019-04-26T01:48:45.560Z,26.35
2019-04-26T01:51:18.617Z,30.30
2019-04-26T01:53:51.723Z,33.08
2019-04-26T01:56:25.164Z,32.25
2019-04-26T01:58:55.211Z,27.87
2019-04-26T02:01:42.770Z,22.87
2019-04-26T02:04:12.895Z,36.10
2019-04-26T02:06:42.954Z,26.00
2019-04-26T02:09:13.031Z,26.35
2019-04-26T02:11:43.447Z,22.37
2019-04-26T02:14:13.706Z,25.02
2019-04-26T02:16:43.860Z,25.02
2019-04-26T02:19:13.899Z,28.07
2019-04-26T02:21:46.061Z,29.70
2019-04-26T02:24:30.107Z,25.72
2019-04-26T02:27:02.274Z,29.85
2019-04-26T02:29:32.724Z,28.98
2019-04-26T02:32:05.739Z,23.18
2019-04-26T02:34:38.004Z,21.77
2019-04-26T02:37:11.543Z,21.35
2019-04-26T02:39:43.067Z,26.90
2019-04-26T02:42:30.169Z,22.05
2019-04-26T02:45:10.108Z,28.67
2019-04-26T02:47:44.744Z,25.97
2019-04-26T02:50:21.468Z,31.35
2019-04-26T02:53:11.235Z,26.93
2019-04-26T02:56:08.324Z,26.05
2019-04-26T02:58:59.972Z,29.15
2019-04-26T03:01:32.350Z,26.27
2019-04-26T03:04:02.571Z,25.72
2019-04-26T03:06:34.938Z,23.35
2019-04-26T03:09:07.539Z,28.57
2019-04-26T03:11:45.911Z,25.35
2019-04-26T03:14:22.380Z,28.42
2019-04-26T03:16:59.829Z,34.38
2019-04-26T03:19:42.988Z,25.02
2019-04-26T03:22:22.104Z,27.05
2019-04-26T03:25:04.406Z,28.07
2019-04-26T03:27:49.572Z,28.00
2019-04-26T03:30:28.290Z,29.40
2019-04-26T03:33:22.734Z,25.85
2019-04-26T03:36:00.184Z,27.42
2019-04-26T03:38:52.979Z,28.07
2019-04-26T03:41:44.317Z,25.48
2019-04-26T03:44:27.418Z,28.17
2019-04-26T03:46:59.498Z,31.95
2019-04-26T03:49:42.070Z,29.35
2019-04-26T03:52:38.015Z,25.15
2019-04-26T03:55:27.848Z,30.27
2019-04-26T03:58:14.604Z,31.20
2019-04-26T04:01:05.133Z,29.30
2019-04-26T04:03:47.897Z,24.92
2019-04-26T04:06:28.651Z,34.83
2019-04-26T04:09:01.767Z,23.70
2019-04-26T04:12:10.970Z,26.62
2019-04-26T04:14:48.679Z,27.40
2019-04-26T04:17:23.300Z,27.93
2019-04-26T04:20:15.735Z,26.20
2019-04-26T04:22:57.897Z,26.07
2019-04-26T04:25:49.102Z,24.77
2019-04-26T04:28:34.636Z,23.73
2019-04-26T04:31:10.410Z,25.95
2019-04-26T04:33:49.709Z,28.98
2019-04-26T04:36:22.876Z,22.90
2019-04-26T04:39:13.040Z,29.02
2019-04-26T04:42:04.951Z,29.82
2019-04-26T04:45:05.046Z,29.02
2019-04-26T04:48:06.739Z,24.63
2019-04-26T04:50:43.163Z,29.75
2019-04-26T04:53:17.077Z,32.65
2019-04-26T04:56:18.854Z,25.72
2019-04-26T04:58:54.447Z,27.05
2019-04-26T05:01:46.192Z,33.48
2019-04-26T05:04:30.646Z,34.20
2019-04-26T05:07:26.310Z,26.48
2019-04-26T05:10:09.380Z,35.30
2019-04-26T05:12:46.332Z,37.05
2019-04-26T05:15:54.944Z,40.80
2019-04-26T05:18:42.825Z,42.00
2019-04-26T05:21:24.701Z,48.73
2019-04-26T05:24:13.251Z,49.65
2019-04-26T05:27:11.962Z,40.45
2019-04-26T05:30:06.187Z,44.53
2019-04-26T05:32:57.014Z,40.25
2019-04-26T05:35:51.049Z,43.78
2019-04-26T05:38:36.176Z,40.60
2019-04-26T05:41:12.195Z,42.73
2019-04-26T05:44:08.243Z,42.15
2019-04-26T05:47:20.949Z,49.33
2019-04-26T05:49:59.720Z,43.25
2019-04-26T05:52:51.604Z,45.65
2019-04-26T05:55:32.540Z,47.40
2019-04-26T05:58:09.412Z,50.70
2019-04-26T06:00:58.900Z,38.45
2019-04-26T06:04:12.212Z,43.75
2019-04-26T06:06:59.382Z,48.70
2019-04-26T06:09:59.275Z,54.05
2019-04-26T06:13:06.632Z,49.20
2019-04-26T06:15:43.994Z,51.77
2019-04-26T06:18:30.749Z,60.43
2019-04-26T06:21:10.502Z,54.53
2019-04-26T06:24:04.725Z,46.98
2019-04-26T06:26:52.783Z,46.05
2019-04-26T06:29:45.800Z,43.38
2019-04-26T06:32:35.367Z,49.27
2019-04-26T06:35:20.135Z,45.95
2019-04-26T06:38:03.936Z,43.80
2019-04-26T06:40:56.444Z,57.10
2019-04-26T06:43:31.127Z,41.70
2019-04-26T06:46:20.306Z,49.27
2019-04-26T06:49:12.129Z,38.23
2019-04-26T06:51:48.227Z,32.73
2019-04-26T06:54:27.067Z,26.82
2019-04-26T06:57:19.187Z,31.30
2019-04-26T07:00:05.227Z,29.20
2019-04-26T07:02:41.285Z,28.25
2019-04-26T07:05:23.534Z,22.30
2019-04-26T07:08:09.163Z,20.60
2019-04-26T07:10:48.653Z,22.75
2019-04-26T07:13:44.330Z,22.90
2019-04-26T07:16:40.034Z,22.37
2019-04-26T07:19:15.915Z,17.67
2019-04-26T07:22:35.404Z,27.15
2019-04-26T07:25:28.655Z,20.82
2019-04-26T07:28:12.347Z,17.32
2019-04-26T07:31:04.155Z,19.92
2019-04-26T07:33:42.767Z,12.40
2019-04-26T07:36:52.279Z,15.83
2019-04-26T07:39:44.903Z,16.30
2019-04-26T07:42:31.522Z,23.52
2019-04-26T07:45:32.176Z,20.72
2019-04-26T07:48:18.779Z,15.00
2019-04-26T07:51:17.586Z,19.87
2019-04-26T07:54:17.863Z,14.50
2019-04-26T07:56:56.474Z,15.72
2019-04-26T07:59:55.456Z,15.38
2019-04-26T08:02:49.443Z,20.55
2019-04-26T08:05:58.707Z,15.30
2019-04-26T08:08:31.799Z,13.53
2019-04-26T08:11:11.554Z,22.20
2019-04-26T08:13:59.332Z,17.92
2019-04-26T08:16:36.388Z,13.03
2019-04-26T08:19:10.685Z,17.57
2019-04-26T08:21:48.138Z,8.17
2019-04-26T08:24:21.761Z,15.03
2019-04-26T08:27:08.098Z,13.15
2019-04-26T08:29:33.404Z,16.37
2019-04-26T08:32:07.000Z,15.78
2019-04-26T08:34:42.076Z,14.93
2019-04-26T08:37:19.188Z,14.55
2019-04-26T08:39:51.863Z,11.17
2019-04-26T08:42:24.968Z,13.60
2019-04-26T08:44:58.666Z,14.50
2019-04-26T08:47:51.061Z,14.23
2019-04-26T08:50:23.654Z,16.73
2019-04-26T08:52:57.896Z,13.62
2019-04-26T08:55:29.471Z,13.35
2019-04-26T08:58:02.551Z,18.25
2019-04-26T09:00:37.727Z,30.30
2019-04-26T09:03:12.128Z,15.30
2019-04-26T09:05:49.970Z,15.25
2019-04-26T09:08:20.462Z,11.50
2019-04-26T09:10:52.808Z,13.50
2019-04-26T09:13:25.949Z,18.57
2019-04-26T09:16:07.780Z,12.28
2019-04-26T09:18:43.403Z,10.63
2019-04-26T09:21:09.227Z,15.88
2019-04-26T09:23:44.371Z,21.73
2019-04-26T09:26:25.815Z,15.17
2019-04-26T09:29:03.286Z,19.80
2019-04-26T09:31:41.040Z,12.10
2019-04-26T09:34:12.580Z,17.17
2019-04-26T09:36:45.511Z,19.67
2019-04-26T09:39:15.828Z,16.83
2019-04-26T09:41:45.544Z,14.60
2019-04-26T09:44:32.003Z,15.87
2019-04-26T09:47:21.594Z,15.47
2019-04-26T09:49:58.618Z,13.43
2019-04-26T09:52:42.203Z,12.47
2019-04-26T09:55:12.718Z,9.67
2019-04-26T09:57:42.566Z,13.27
2019-04-26T10:00:16.387Z,13.23
2019-04-26T10:02:46.987Z,14.20
2019-04-26T10:05:22.090Z,14.80
2019-04-26T10:07:49.131Z,13.87
2019-04-26T10:10:23.153Z,16.40
2019-04-26T10:13:08.287Z,10.20
2019-04-26T10:18:32.603Z,12.13
2019-04-26T10:21:02.289Z,16.93
2019-04-26T10:23:31.950Z,17.50
2019-04-26T10:26:03.349Z,9.97
2019-04-26T10:28:33.023Z,14.23
2019-04-26T10:31:03.287Z,13.57
2019-04-26T10:33:36.589Z,12.63
2019-04-26T10:36:04.402Z,15.20
2019-04-26T10:38:34.062Z,11.33
2019-04-26T10:41:04.232Z,13.10
2019-04-26T10:43:38.188Z,16.57
2019-04-26T10:46:08.745Z,11.17
2019-04-26T10:48:41.203Z,14.30
2019-04-26T10:51:12.545Z,13.30
2019-04-26T10:53:50.456Z,16.63
2019-04-26T10:56:38.292Z,13.47
2019-04-26T10:59:15.528Z,19.03
2019-04-26T11:01:45.292Z,13.07
2019-04-26T11:04:15.835Z,14.83
2019-04-26T11:06:45.508Z,13.93
2019-04-26T11:09:15.301Z,15.00
2019-04-26T11:11:44.950Z,14.30
2019-04-26T11:14:18.425Z,8.80
2019-04-26T11:16:46.464Z,17.70
2019-04-26T11:19:16.158Z,12.27
2019-04-26T11:21:45.844Z,15.63
2019-04-26T11:24:19.425Z,24.90
2019-04-26T11:26:48.382Z,18.67
2019-04-26T11:29:17.694Z,12.47
2019-04-26T11:31:46.995Z,12.60
2019-04-26T11:34:19.174Z,12.83
2019-04-26T11:36:47.182Z,11.10
2019-04-26T11:39:16.828Z,13.20
2019-04-26T11:41:46.706Z,14.40
2019-04-26T11:44:16.353Z,9.43
2019-04-26T11:46:46.098Z,10.10
2019-04-26T11:49:15.874Z,11.87
2019-04-26T11:51:45.611Z,12.50
2019-04-26T11:54:17.080Z,12.93
2019-04-26T11:56:46.772Z,11.67
2019-04-26T11:59:16.537Z,13.93
2019-04-26T12:01:45.919Z,10.70
2019-04-26T12:04:33.765Z,14.43
2019-04-26T12:07:07.774Z,12.37
2019-04-26T12:09:48.516Z,10.07
2019-04-26T12:12:19.142Z,9.60
2019-04-26T12:14:48.831Z,17.00
2019-04-26T12:17:18.370Z,10.63
2019-04-26T12:19:48.231Z,11.43
2019-04-26T12:22:19.395Z,11.57
2019-04-26T12:24:49.038Z,14.37
2019-04-26T12:27:18.835Z,11.43
2019-04-26T12:29:49.826Z,9.90
2019-04-26T12:32:19.643Z,16.60
2019-04-26T12:34:49.284Z,14.73
2019-04-26T12:37:20.897Z,11.57
2019-04-26T12:39:50.367Z,16.80
2019-04-26T12:42:19.927Z,15.30
2019-04-26T12:45:07.575Z,13.63
2019-04-26T12:47:48.702Z,14.23
2019-04-26T12:50:18.580Z,11.40
2019-04-26T12:52:51.429Z,16.67
2019-04-26T12:55:20.176Z,15.27
2019-04-26T12:57:49.693Z,17.27
2019-04-26T13:00:21.354Z,20.73
2019-04-26T13:02:54.301Z,19.23
2019-04-26T13:05:23.191Z,21.27
2019-04-26T13:07:53.724Z,19.20
2019-04-26T13:10:41.558Z,17.63
2019-04-26T13:13:12.865Z,21.20
2019-04-26T13:16:01.101Z,22.87
2019-04-26T13:18:31.734Z,26.27
2019-04-26T13:21:02.879Z,22.20
2019-04-26T13:23:31.979Z,21.87
2019-04-26T13:26:01.763Z,22.40
2019-04-26T13:28:31.566Z,20.30
2019-04-26T13:31:04.524Z,26.43
2019-04-26T13:33:34.209Z,25.10
2019-04-26T13:36:03.890Z,22.03
2019-04-26T13:38:34.149Z,23.30
2019-04-26T13:41:06.292Z,28.27
2019-04-26T13:43:39.099Z,17.27
2019-04-26T13:46:26.466Z,28.63
2019-04-26T13:49:00.119Z,27.40
2019-04-26T13:51:31.045Z,26.07
2019-04-26T13:54:00.303Z,25.53
2019-04-26T13:56:32.023Z,19.70
2019-04-26T13:59:00.941Z,28.23
2019-04-26T14:01:32.578Z,26.30
2019-04-26T14:04:06.939Z,32.83
2019-04-26T14:06:37.021Z,22.90
2019-04-26T14:09:10.460Z,31.93
2019-04-26T14:11:41.384Z,24.40
2019-04-26T14:14:14.110Z,33.17
2019-04-26T14:16:43.777Z,25.30
2019-04-26T14:19:15.604Z,31.27
2019-04-26T14:21:45.139Z,31.23
2019-04-26T14:24:28.392Z,31.47
2019-04-26T14:27:02.350Z,28.80
2019-04-26T14:29:32.768Z,22.73
2019-04-26T14:32:03.353Z,24.90
2019-04-26T14:34:36.189Z,27.13
2019-04-26T14:37:06.761Z,25.63
2019-04-26T14:39:49.680Z,24.70
2019-04-26T14:42:07.166Z,27.43
2019-04-26T14:44:48.855Z,25.10
2019-04-26T14:47:14.907Z,21.97
2019-04-26T14:49:42.824Z,27.93
2019-04-26T14:52:10.887Z,25.87
2019-04-26T14:54:41.531Z,23.83
2019-04-26T14:57:21.071Z,25.10
2019-04-26T14:59:46.973Z,27.57
2019-04-26T15:02:30.169Z,30.57
2019-04-26T15:05:17.984Z,30.20
2019-04-26T15:07:50.966Z,30.70
2019-04-26T15:10:20.807Z,31.27
2019-04-26T15:12:58.588Z,25.00
2019-04-26T15:15:21.897Z,27.73
2019-04-26T15:17:53.626Z,25.70
2019-04-26T15:20:24.317Z,34.33
2019-04-26T15:22:55.508Z,25.40
2019-04-26T15:25:25.230Z,32.37
2019-04-26T15:27:54.891Z,37.67
2019-04-26T15:30:24.573Z,37.47
2019-04-26T15:32:54.214Z,38.93
2019-04-26T15:35:23.948Z,38.13
2019-04-26T15:37:57.407Z,39.77
2019-04-26T15:40:27.379Z,34.63
2019-04-26T15:43:02.973Z,31.77
2019-04-26T15:45:38.774Z,42.57
2019-04-26T15:48:23.045Z,41.33
2019-04-26T15:50:54.592Z,35.17
2019-04-26T15:53:24.418Z,41.90
2019-04-26T15:56:19.214Z,45.70
2019-04-26T15:58:49.166Z,37.30
2019-04-26T16:01:18.995Z,41.33
2019-04-26T16:03:48.735Z,45.87
2019-04-26T16:06:18.375Z,43.90
2019-04-26T16:08:48.333Z,34.57
2019-04-26T16:11:18.018Z,37.60
2019-04-26T16:13:52.156Z,40.87
2019-04-26T16:16:20.527Z,41.10
2019-04-26T16:18:55.508Z,37.27
2019-04-26T16:21:23.042Z,37.97
2019-04-26T16:23:55.281Z,29.67
2019-04-26T16:26:25.233Z,37.43
2019-04-26T16:28:56.583Z,41.37
2019-04-26T16:31:37.003Z,46.40
2019-04-26T16:34:10.809Z,45.63
2019-04-26T16:36:42.192Z,36.40
2019-04-26T16:39:13.185Z,38.37
2019-04-26T16:41:43.091Z,35.17
2019-04-26T16:44:13.137Z,46.83
2019-04-26T16:46:43.886Z,34.73
2019-04-26T16:49:16.636Z,44.27
2019-04-26T16:51:46.319Z,30.67
2019-04-26T16:54:21.784Z,43.10
2019-04-26T16:56:52.540Z,37.80
2019-04-26T16:59:26.580Z,40.77
2019-04-26T17:01:53.781Z,38.90
2019-04-26T17:04:28.443Z,33.53
2019-04-26T17:06:54.886Z,40.33
2019-04-26T17:09:28.753Z,42.23
2019-04-26T17:11:56.035Z,36.97
2019-04-26T17:14:26.184Z,42.70
2019-04-26T17:16:56.003Z,37.50
2019-04-26T17:19:25.735Z,39.13
2019-04-26T17:22:01.035Z,51.10
2019-04-26T17:24:43.842Z,42.50
2019-04-26T17:27:14.388Z,34.73
2019-04-26T17:29:44.082Z,43.17
2019-04-26T17:32:17.177Z,38.93
2019-04-26T17:34:45.359Z,36.87
2019-04-26T17:37:17.441Z,45.13
2019-04-26T17:39:47.474Z,45.20
2019-04-26T17:42:17.748Z,45.70
2019-04-26T17:44:49.472Z,42.50
2019-04-26T17:47:20.251Z,34.70
2019-04-26T17:49:50.191Z,41.03
2019-04-26T17:52:21.431Z,53.73
2019-04-26T17:54:52.083Z,37.83
2019-04-26T17:57:33.506Z,44.00
2019-04-26T18:00:06.809Z,43.73
2019-04-26T18:02:40.395Z,39.73
2019-04-26T18:05:00.860Z,39.47
2019-04-26T18:07:43.295Z,47.10
2019-04-26T18:10:02.316Z,45.73
2019-04-26T18:12:32.692Z,41.40
2019-04-26T18:15:05.011Z,41.33
2019-04-26T18:17:40.148Z,40.33
2019-04-26T18:20:28.707Z,41.60
2019-04-26T18:23:09.937Z,42.10
2019-04-26T18:25:37.008Z,52.57
2019-04-26T18:28:08.704Z,45.77
2019-04-26T18:30:40.364Z,41.63
2019-04-26T18:33:09.523Z,44.83
2019-04-26T18:35:41.801Z,40.57
2019-04-26T18:38:12.552Z,45.47
2019-04-26T18:40:58.463Z,46.73
2019-04-26T18:43:23.900Z,41.20
2019-04-26T18:45:53.242Z,41.30
2019-04-26T18:48:35.236Z,44.03
2019-04-26T18:51:03.082Z,49.50
2019-04-26T18:53:39.293Z,46.23
2019-04-26T18:56:07.502Z,48.90
2019-04-26T18:58:38.005Z,48.57
2019-04-26T19:01:09.864Z,48.70
2019-04-26T19:03:39.511Z,36.87
2019-04-26T19:06:09.162Z,48.87
2019-04-26T19:08:47.706Z,44.73
2019-04-26T19:11:11.815Z,43.97
2019-04-26T19:13:43.406Z,48.20
2019-04-26T19:16:21.571Z,41.37
2019-04-26T19:18:56.003Z,51.80
2019-04-26T19:21:39.193Z,48.00
2019-04-26T19:24:11.910Z,45.23
2019-04-26T19:26:39.107Z,51.27
2019-04-26T19:29:17.638Z,42.27
2019-04-26T19:31:41.488Z,49.13
2019-04-26T19:34:11.685Z,43.40
2019-04-26T19:36:42.072Z,40.57
2019-04-26T19:39:13.143Z,39.50
2019-04-26T19:41:44.446Z,50.53
2019-04-26T19:44:14.626Z,42.80
2019-04-26T19:46:51.936Z,54.60
2019-04-26T19:49:25.946Z,49.53
2019-04-26T19:52:05.094Z,51.47
2019-04-26T19:54:38.458Z,47.60
2019-04-26T19:57:12.567Z,42.25
2019-04-26T19:59:42.355Z,57.83
2019-04-26T20:02:12.814Z,50.37
2019-04-26T20:04:42.636Z,47.83
2019-04-26T20:07:12.523Z,50.67
2019-04-26T20:09:42.205Z,52.70
2019-04-26T20:12:13.623Z,50.80
2019-04-26T20:14:50.357Z,56.90
2019-04-26T20:17:19.805Z,54.47
2019-04-26T20:19:47.700Z,55.23
2019-04-26T20:22:22.087Z,52.27
2019-04-26T20:24:55.971Z,55.58
2019-04-26T20:27:28.578Z,51.20
2019-04-26T20:29:58.211Z,46.37
2019-04-26T20:32:34.166Z,52.37
2019-04-26T20:35:13.153Z,54.50
2019-04-26T20:37:45.095Z,49.37
2019-04-26T20:40:22.151Z,57.33
2019-04-26T20:42:47.826Z,44.42
2019-04-26T20:45:17.473Z,49.90
2019-04-26T20:47:53.798Z,51.53
2019-04-26T20:50:19.444Z,56.18
2019-04-26T20:52:49.485Z,55.43
2019-04-26T20:55:23.474Z,57.75
2019-04-26T20:57:51.979Z,44.53
2019-04-26T21:00:22.506Z,51.37
2019-04-26T21:02:54.043Z,48.58
2019-04-26T21:05:24.316Z,43.23
2019-04-26T21:07:54.039Z,48.27
2019-04-26T21:10:25.665Z,48.40
2019-04-26T21:12:55.888Z,49.23
2019-04-26T21:15:25.903Z,49.00
2019-04-26T21:17:56.598Z,49.23
2019-04-26T21:20:27.613Z,50.73
2019-04-26T21:23:02.357Z,49.65
2019-04-26T21:25:35.382Z,36.77
2019-04-26T21:28:23.705Z,50.55
2019-04-26T21:31:03.509Z,44.35
2019-04-26T21:33:38.762Z,38.55
2019-04-26T21:36:24.193Z,44.88
2019-04-26T21:39:13.656Z,51.15
2019-04-26T21:41:48.575Z,50.00
2019-04-26T21:44:19.399Z,55.20
2019-04-26T21:46:49.588Z,50.25
2019-04-26T21:49:22.238Z,47.48
2019-04-26T21:51:54.209Z,43.42
2019-04-26T21:54:25.204Z,51.93
2019-04-26T21:56:55.628Z,42.83
2019-04-26T21:59:25.659Z,47.93
2019-04-26T22:01:59.171Z,49.38
2019-04-26T22:04:34.190Z,39.78
2019-04-26T22:07:05.231Z,51.43
2019-04-26T22:09:40.416Z,44.60
2019-04-26T22:12:13.072Z,49.25
2019-04-26T22:14:46.631Z,54.18
2019-04-26T22:17:18.503Z,56.25
2019-04-26T22:19:50.124Z,57.43
2019-04-26T22:22:27.960Z,47.90
2019-04-26T22:24:59.568Z,49.65
2019-04-26T22:27:29.522Z,50.38
2019-04-26T22:29:59.483Z,42.85
2019-04-26T22:32:29.462Z,48.92
2019-04-26T22:34:59.422Z,70.30
2019-04-26T22:37:30.300Z,55.15
2019-04-26T22:40:03.160Z,56.35
2019-04-26T22:42:39.888Z,50.97
2019-04-26T22:45:14.778Z,48.52
2019-04-26T22:47:49.036Z,52.73
2019-04-26T22:50:20.741Z,55.48
2019-04-26T22:52:51.758Z,47.30
2019-04-26T22:55:27.220Z,46.92
2019-04-26T22:57:55.295Z,47.43
2019-04-26T23:00:29.404Z,44.23
2019-04-26T23:03:05.454Z,44.63
2019-04-26T23:05:35.107Z,48.75
2019-04-26T23:08:03.368Z,48.35
2019-04-26T23:10:44.164Z,49.65
2019-04-26T23:13:30.843Z,46.13
2019-04-26T23:16:18.931Z,51.23
2019-04-26T23:18:50.565Z,49.20
2019-04-26T23:21:22.164Z,51.53
2019-04-26T23:23:53.459Z,56.02
2019-04-26T23:26:23.606Z,56.75
2019-04-26T23:28:53.634Z,43.95
2019-04-26T23:31:23.778Z,56.15
2019-04-26T23:33:54.034Z,45.45
2019-04-26T23:36:24.226Z,41.00
2019-04-26T23:38:54.244Z,59.67
2019-04-26T23:41:24.363Z,49.18
2019-04-26T23:44:02.304Z,51.23
2019-04-26T23:46:26.153Z,46.65
2019-04-26T23:48:56.220Z,45.10
2019-04-26T23:51:26.348Z,49.75
2019-04-26T23:53:57.807Z,54.30
2019-04-26T23:56:28.072Z,53.85
2019-04-26T23:58:58.046Z,44.08
